ナンディ の空港の天気 - METARとTAF

ナンディ国際空港 ( NFFN / NAN ) - フィジー ナンディ (ビティレブ島)
飛行場実況気象(Metar)
観測時間08/08 14:00 FJT (08/08 02:00 UTC)
風向・風速西 6m/s
視程10km以上
天気現象
少しの雲 雲底高度 910m
気温30℃
湿度59%
気圧1011hPa
METARNFFN 080200Z 28011KT 9999 FEW030 30/21 Q1011 NOSIG
過去の天気等 Google飛行場航空写真 Wunderground天気予報

過去48時間のMETAR

飛行場予報(TAF)
発表時間: 8/08 11:01 FJT (8/07 23:01 UTC)
予報対象時間: 8日12時 FJT ~ 9日12時 FJT
風向・風速西北西 5m/s
視程10km以上
全天の4割程度の雲 雲底高度 850m
8日16時 FJT ~ 8日18時 FJT に徐々に
風向・風速南東 3m/s
9日10時 FJT ~ 9日12時 FJT に徐々に
風向・風速西北西 5m/s
TAF NFFN 072301Z 0800/0824 30010KT 9999 SCT028
BECMG 0804/0806 13005KT
BECMG 0822/0824 30010KT